createdAt,value
2018-01-30T00:00:56.550Z,7.81
2018-01-30T00:03:24.129Z,7.70
2018-01-30T00:05:51.742Z,7.70
2018-01-30T00:08:19.374Z,7.73
2018-01-30T00:10:46.982Z,7.72
2018-01-30T00:13:14.574Z,7.73
2018-01-30T00:15:42.202Z,7.75
2018-01-30T00:18:09.797Z,7.73
2018-01-30T00:20:37.417Z,7.69
2018-01-30T00:23:05.000Z,7.63
2018-01-30T00:25:32.613Z,7.60
2018-01-30T00:28:00.201Z,7.61
2018-01-30T00:30:27.823Z,7.59
2018-01-30T00:32:55.421Z,7.52
2018-01-30T00:35:23.032Z,7.52
2018-01-30T00:37:50.694Z,7.52
2018-01-30T00:40:18.337Z,7.47
2018-01-30T00:42:45.949Z,7.47
2018-01-30T00:45:13.582Z,7.48
2018-01-30T00:47:42.113Z,7.52
2018-01-30T00:50:09.687Z,7.46
2018-01-30T00:52:37.320Z,7.45
2018-01-30T00:55:04.920Z,7.49
2018-01-30T00:57:32.581Z,7.52
2018-01-30T01:00:00.158Z,7.53
2018-01-30T01:02:27.787Z,7.55
2018-01-30T01:04:55.366Z,7.57
2018-01-30T01:07:23.032Z,7.57
2018-01-30T01:09:50.630Z,7.59
2018-01-30T01:12:18.242Z,7.58
2018-01-30T01:14:45.958Z,7.54
2018-01-30T01:17:13.586Z,7.51
2018-01-30T01:19:41.174Z,7.52
2018-01-30T01:22:08.812Z,7.51
2018-01-30T01:24:36.406Z,7.52
2018-01-30T01:27:04.017Z,7.47
2018-01-30T01:29:31.610Z,7.41
2018-01-30T01:31:59.233Z,7.41
2018-01-30T01:34:26.852Z,7.34
2018-01-30T01:36:54.462Z,7.33
2018-01-30T01:39:22.050Z,7.32
2018-01-30T01:41:49.793Z,7.29
2018-01-30T01:44:17.395Z,7.30
2018-01-30T01:46:45.001Z,7.24
2018-01-30T01:49:12.597Z,7.23
2018-01-30T01:51:40.248Z,7.23
2018-01-30T01:54:07.801Z,7.23
2018-01-30T01:56:35.430Z,7.25
2018-01-30T01:59:03.053Z,7.25
2018-01-30T02:01:30.692Z,7.25
2018-01-30T02:03:58.293Z,7.22
2018-01-30T02:06:25.913Z,7.19
2018-01-30T02:08:53.486Z,7.19
2018-01-30T02:11:21.114Z,7.16
2018-01-30T02:13:48.697Z,7.19
2018-01-30T02:16:16.314Z,7.20
2018-01-30T02:18:43.899Z,7.19
2018-01-30T02:21:11.506Z,7.15
2018-01-30T02:23:39.082Z,7.14
2018-01-30T02:26:06.713Z,7.18
2018-01-30T02:28:34.294Z,7.22
2018-01-30T02:31:02.021Z,7.22
2018-01-30T02:33:29.624Z,7.24
2018-01-30T02:35:57.239Z,7.17
2018-01-30T02:38:24.825Z,7.15
2018-01-30T02:40:52.446Z,7.13
2018-01-30T02:43:20.029Z,7.14
2018-01-30T02:45:47.649Z,7.14
2018-01-30T02:48:15.302Z,7.16
2018-01-30T02:50:42.927Z,7.18
2018-01-30T02:53:10.518Z,7.17
2018-01-30T02:55:38.134Z,7.17
2018-01-30T02:58:05.721Z,7.12
2018-01-30T03:00:33.354Z,7.14
2018-01-30T03:03:00.961Z,7.15
2018-01-30T03:05:28.579Z,7.15
2018-01-30T03:07:56.169Z,7.12
2018-01-30T03:10:23.786Z,7.12
2018-01-30T03:12:51.398Z,7.15
2018-01-30T03:15:19.017Z,7.10
2018-01-30T03:17:46.607Z,7.05
2018-01-30T03:20:14.311Z,7.00
2018-01-30T03:22:41.902Z,6.97
2018-01-30T03:25:09.525Z,6.88
2018-01-30T03:27:37.121Z,6.82
2018-01-30T03:30:04.791Z,6.80
2018-01-30T03:32:32.387Z,6.81
2018-01-30T03:35:00.083Z,6.83
2018-01-30T03:37:27.665Z,6.81
2018-01-30T03:39:55.283Z,6.84
2018-01-30T03:42:22.878Z,6.82
2018-01-30T03:44:50.494Z,6.80
2018-01-30T03:47:18.129Z,6.77
2018-01-30T03:49:45.744Z,6.75
2018-01-30T03:52:13.330Z,6.75
2018-01-30T03:54:40.954Z,6.70
2018-01-30T03:57:08.659Z,6.69
2018-01-30T03:59:36.325Z,6.69
2018-01-30T04:02:03.913Z,6.70
2018-01-30T04:04:31.525Z,6.71
2018-01-30T04:06:59.142Z,6.64
2018-01-30T04:09:26.754Z,6.61
2018-01-30T04:11:54.346Z,6.59
2018-01-30T04:14:22.046Z,6.59
2018-01-30T04:16:49.631Z,6.61
2018-01-30T04:19:17.263Z,6.57
2018-01-30T04:21:44.839Z,6.48
2018-01-30T04:24:12.453Z,6.41
2018-01-30T04:26:40.030Z,6.40
2018-01-30T04:29:07.638Z,6.30
2018-01-30T04:31:35.322Z,6.21
2018-01-30T04:34:02.993Z,6.13
2018-01-30T04:36:30.577Z,6.11
2018-01-30T04:38:58.199Z,6.06
2018-01-30T04:41:25.865Z,6.01
2018-01-30T04:43:53.528Z,5.91
2018-01-30T04:46:21.122Z,5.88
2018-01-30T04:48:48.792Z,5.91
2018-01-30T04:51:16.374Z,5.89
2018-01-30T04:53:43.985Z,5.78
2018-01-30T04:56:11.568Z,5.69
2018-01-30T04:58:39.189Z,5.71
2018-01-30T05:01:06.852Z,5.74
2018-01-30T05:03:34.473Z,5.72
2018-01-30T05:06:02.071Z,5.71
2018-01-30T05:08:29.699Z,5.68
2018-01-30T05:10:57.283Z,5.70
2018-01-30T05:13:24.909Z,5.74
2018-01-30T05:15:52.558Z,5.70
2018-01-30T05:18:20.162Z,5.74
2018-01-30T05:20:47.749Z,5.69
2018-01-30T05:23:15.371Z,5.60
2018-01-30T05:25:42.990Z,5.50
2018-01-30T05:28:10.634Z,5.42
2018-01-30T05:30:38.311Z,5.49
2018-01-30T05:33:05.922Z,5.50
2018-01-30T05:35:33.507Z,5.50
2018-01-30T05:38:01.132Z,5.49
2018-01-30T05:40:28.717Z,5.54
2018-01-30T05:42:56.339Z,5.51
2018-01-30T05:45:23.921Z,5.41
2018-01-30T05:47:51.550Z,5.34
2018-01-30T05:50:19.141Z,5.30
2018-01-30T05:52:46.777Z,5.30
2018-01-30T05:55:14.362Z,5.37
2018-01-30T05:57:41.997Z,5.38
2018-01-30T06:00:09.581Z,5.40
2018-01-30T06:02:37.249Z,5.37
2018-01-30T06:05:04.842Z,5.38
2018-01-30T06:07:32.458Z,5.42
2018-01-30T06:10:00.065Z,5.37
2018-01-30T06:12:27.726Z,5.37
2018-01-30T06:14:55.356Z,5.37
2018-01-30T06:17:22.942Z,5.35
2018-01-30T06:19:50.577Z,5.39
2018-01-30T06:22:18.181Z,5.12
2018-01-30T06:24:45.814Z,5.16
2018-01-30T06:27:13.397Z,5.13
2018-01-30T06:29:41.018Z,5.14
2018-01-30T06:32:08.611Z,5.19
2018-01-30T06:34:36.234Z,5.20
2018-01-30T06:37:03.826Z,5.19
2018-01-30T06:39:31.447Z,5.26
2018-01-30T06:41:59.033Z,5.24
2018-01-30T06:44:26.712Z,5.17
2018-01-30T06:46:54.362Z,5.13
2018-01-30T06:49:21.986Z,5.13
2018-01-30T06:51:49.570Z,5.07
2018-01-30T06:54:17.179Z,4.95
2018-01-30T06:56:44.790Z,4.85
2018-01-30T06:59:12.410Z,4.91
2018-01-30T07:01:39.998Z,4.91
2018-01-30T07:04:07.609Z,4.97
2018-01-30T07:06:35.193Z,5.07
2018-01-30T07:09:02.805Z,5.13
2018-01-30T07:11:30.402Z,5.18
2018-01-30T07:13:58.064Z,5.23
2018-01-30T07:16:25.722Z,5.26
2018-01-30T07:18:53.357Z,5.26
2018-01-30T07:21:20.997Z,5.32
2018-01-30T07:23:48.618Z,5.33
2018-01-30T07:26:16.220Z,5.27
2018-01-30T07:28:43.842Z,5.29
2018-01-30T07:31:11.435Z,5.29
2018-01-30T07:33:39.142Z,5.29
2018-01-30T07:36:06.729Z,6.37
2018-01-30T07:38:34.358Z,6.10
2018-01-30T07:41:01.970Z,5.90
2018-01-30T07:43:29.603Z,5.74
2018-01-30T07:45:57.202Z,5.68
2018-01-30T07:48:24.823Z,5.57
2018-01-30T07:50:52.406Z,5.60
2018-01-30T07:53:20.039Z,5.58
2018-01-30T07:55:47.635Z,5.57
2018-01-30T07:58:15.245Z,5.60
2018-01-30T08:00:42.853Z,5.61
2018-01-30T08:03:10.493Z,5.62
2018-01-30T08:05:38.085Z,5.59
2018-01-30T08:08:05.678Z,5.55
2018-01-30T08:10:33.286Z,5.56
2018-01-30T08:13:00.893Z,5.62
2018-01-30T08:15:28.523Z,5.73
2018-01-30T08:17:56.117Z,5.82
2018-01-30T08:20:23.761Z,5.84
2018-01-30T08:22:51.349Z,5.86
2018-01-30T08:25:18.974Z,5.88
2018-01-30T08:27:46.546Z,5.90
2018-01-30T08:30:14.190Z,5.86
2018-01-30T08:32:42.716Z,5.89
2018-01-30T08:35:11.939Z,5.95
2018-01-30T08:37:39.534Z,6.08
2018-01-30T08:40:07.158Z,6.15
2018-01-30T08:42:34.751Z,6.14
2018-01-30T08:45:02.381Z,6.14
2018-01-30T08:47:30.011Z,6.05
2018-01-30T08:49:57.839Z,6.03
2018-01-30T08:52:25.429Z,5.99
2018-01-30T08:54:53.050Z,5.99
2018-01-30T08:57:20.654Z,6.03
2018-01-30T08:59:48.394Z,6.10
2018-01-30T09:02:16.001Z,6.15
2018-01-30T09:04:43.622Z,6.23
2018-01-30T09:07:11.222Z,6.32
2018-01-30T09:09:38.883Z,6.39
2018-01-30T09:12:06.494Z,6.41
2018-01-30T09:14:34.117Z,6.43
2018-01-30T09:17:01.708Z,6.39
2018-01-30T09:19:29.326Z,6.38
2018-01-30T09:21:56.919Z,6.46
2018-01-30T09:24:24.517Z,6.52
2018-01-30T09:26:52.273Z,6.61
2018-01-30T09:29:19.921Z,6.73
2018-01-30T09:31:47.549Z,6.76
2018-01-30T09:34:15.154Z,6.79
2018-01-30T09:36:43.379Z,6.81
2018-01-30T09:39:10.969Z,6.78
2018-01-30T09:41:38.594Z,6.88
2018-01-30T09:44:06.187Z,6.92
2018-01-30T09:46:33.809Z,6.98
2018-01-30T09:49:01.398Z,7.09
2018-01-30T09:51:29.038Z,7.29
2018-01-30T09:53:56.622Z,7.48
2018-01-30T09:56:24.253Z,7.51
2018-01-30T09:58:51.864Z,7.47
2018-01-30T10:01:19.515Z,7.47
2018-01-30T10:03:47.089Z,7.49
2018-01-30T10:06:14.714Z,7.46
2018-01-30T10:08:42.319Z,7.48
2018-01-30T10:11:10.026Z,7.59
2018-01-30T10:13:37.606Z,7.76
2018-01-30T10:16:05.226Z,7.84
2018-01-30T10:18:32.813Z,7.95
2018-01-30T10:21:00.434Z,8.06
2018-01-30T10:23:28.025Z,8.22
2018-01-30T10:25:55.655Z,8.39
2018-01-30T10:28:23.245Z,8.48
2018-01-30T10:30:50.878Z,8.36
2018-01-30T10:33:18.480Z,8.16
2018-01-30T10:35:46.093Z,8.17
2018-01-30T10:38:13.698Z,8.17
2018-01-30T10:40:41.350Z,8.49
2018-01-30T10:43:08.941Z,8.82
2018-01-30T10:45:36.713Z,9.08
2018-01-30T10:48:04.289Z,9.36
2018-01-30T10:50:31.919Z,9.42
2018-01-30T10:52:59.513Z,9.24
2018-01-30T10:55:27.123Z,9.21
2018-01-30T10:57:54.773Z,9.03
2018-01-30T11:00:22.376Z,8.91
2018-01-30T11:02:49.994Z,9.23
2018-01-30T11:05:17.593Z,9.34
2018-01-30T11:07:45.289Z,9.44
2018-01-30T11:10:12.886Z,9.24
2018-01-30T11:12:40.561Z,9.02
2018-01-30T11:15:08.154Z,8.87
2018-01-30T11:17:35.785Z,8.80
2018-01-30T11:20:03.397Z,8.68
2018-01-30T11:22:30.990Z,8.68
2018-01-30T11:24:58.582Z,8.65
2018-01-30T11:27:26.250Z,8.64
2018-01-30T11:29:53.860Z,8.68
2018-01-30T11:32:21.487Z,8.78
2018-01-30T11:34:49.122Z,8.88
2018-01-30T11:37:16.705Z,8.67
2018-01-30T11:39:44.451Z,8.61
2018-01-30T11:42:12.042Z,8.54
2018-01-30T11:44:39.663Z,8.49
2018-01-30T11:47:07.249Z,8.42
2018-01-30T11:49:34.899Z,8.42
2018-01-30T11:52:02.493Z,8.44
2018-01-30T11:54:30.164Z,8.45
2018-01-30T11:56:57.779Z,8.42
2018-01-30T11:59:25.391Z,8.38
2018-01-30T12:01:53.035Z,8.35
2018-01-30T12:04:20.659Z,8.36
2018-01-30T12:06:48.317Z,8.38
2018-01-30T12:09:15.906Z,8.35
2018-01-30T12:11:43.560Z,8.36
2018-01-30T12:14:11.155Z,8.39
2018-01-30T12:16:38.793Z,8.43
2018-01-30T12:19:06.380Z,8.58
2018-01-30T12:21:33.998Z,8.65
2018-01-30T12:24:01.598Z,8.69
2018-01-30T12:26:29.231Z,8.74
2018-01-30T12:28:56.818Z,8.62
2018-01-30T12:31:24.483Z,8.61
2018-01-30T12:33:52.129Z,8.64
2018-01-30T12:36:19.777Z,8.79
2018-01-30T12:38:47.370Z,9.08
2018-01-30T12:41:15.009Z,9.27
2018-01-30T12:43:42.587Z,9.56
2018-01-30T12:46:10.243Z,9.70
2018-01-30T12:48:37.847Z,9.79
2018-01-30T12:51:05.490Z,9.75
2018-01-30T12:53:33.133Z,9.78
2018-01-30T12:56:00.756Z,9.86
2018-01-30T12:58:28.363Z,9.82
2018-01-30T13:00:56.086Z,9.97
2018-01-30T13:03:23.682Z,10.11
2018-01-30T13:05:51.350Z,10.14
2018-01-30T13:08:18.961Z,10.16
2018-01-30T13:10:46.578Z,10.25
2018-01-30T13:13:14.170Z,10.22
2018-01-30T13:15:41.805Z,10.06
2018-01-30T13:18:09.422Z,10.15
2018-01-30T13:20:37.039Z,10.33
2018-01-30T13:23:04.634Z,10.55
2018-01-30T13:25:32.269Z,10.67
2018-01-30T13:27:59.863Z,10.68
2018-01-30T13:30:27.492Z,10.50
2018-01-30T13:32:55.137Z,10.34
2018-01-30T13:35:22.798Z,10.02
2018-01-30T13:37:50.382Z,10.16
2018-01-30T13:40:18.008Z,10.29
2018-01-30T13:42:45.621Z,10.18
2018-01-30T13:45:13.239Z,10.30
2018-01-30T13:47:40.848Z,10.34
2018-01-30T13:50:08.481Z,10.27
2018-01-30T13:52:36.084Z,10.26
2018-01-30T13:55:03.704Z,10.47
2018-01-30T13:57:31.310Z,10.52
2018-01-30T13:59:58.985Z,10.53
2018-01-30T14:02:26.613Z,10.73
2018-01-30T14:04:54.238Z,10.81
2018-01-30T14:07:21.861Z,10.95
2018-01-30T14:09:49.498Z,10.91
2018-01-30T14:12:17.116Z,10.95
2018-01-30T14:14:44.761Z,11.11
2018-01-30T14:17:12.371Z,11.15
2018-01-30T14:19:40.011Z,11.20
2018-01-30T14:22:07.614Z,11.01
2018-01-30T14:24:35.245Z,10.93
2018-01-30T14:27:02.858Z,10.92
2018-01-30T14:29:30.521Z,10.74
2018-01-30T14:31:58.110Z,10.90
2018-01-30T14:34:25.763Z,11.09
2018-01-30T14:36:53.386Z,11.37
2018-01-30T14:39:21.008Z,11.62
2018-01-30T14:41:48.606Z,11.47
2018-01-30T14:44:16.255Z,11.23
2018-01-30T14:46:44.757Z,11.15
2018-01-30T14:49:12.370Z,11.07
2018-01-30T14:51:39.973Z,10.96
2018-01-30T14:54:07.599Z,10.95
2018-01-30T14:56:35.197Z,10.85
2018-01-30T14:59:02.810Z,10.92
2018-01-30T15:01:30.471Z,10.95
2018-01-30T15:03:58.174Z,10.82
2018-01-30T15:06:25.820Z,10.73
2018-01-30T15:08:53.445Z,10.75
2018-01-30T15:11:21.144Z,10.86
2018-01-30T15:13:48.739Z,10.86
2018-01-30T15:16:16.374Z,10.80
2018-01-30T15:18:43.971Z,10.81
2018-01-30T15:21:11.598Z,10.78
2018-01-30T15:23:39.203Z,10.80
2018-01-30T15:26:06.859Z,10.90
2018-01-30T15:28:34.475Z,10.82
2018-01-30T15:31:02.125Z,10.71
2018-01-30T15:33:29.723Z,10.68
2018-01-30T15:35:57.330Z,10.65
2018-01-30T15:38:24.941Z,10.64
2018-01-30T15:40:52.546Z,10.59
2018-01-30T15:43:20.162Z,10.50
2018-01-30T15:45:47.758Z,10.39
2018-01-30T15:48:15.405Z,10.19
2018-01-30T15:50:42.998Z,10.00
2018-01-30T15:53:10.625Z,9.81
2018-01-30T15:55:38.222Z,9.67
2018-01-30T15:58:05.850Z,9.60
2018-01-30T16:00:33.482Z,9.67
2018-01-30T16:03:01.122Z,9.68
2018-01-30T16:05:28.735Z,9.66
2018-01-30T16:07:56.378Z,9.65
2018-01-30T16:10:23.981Z,9.54
2018-01-30T16:12:51.610Z,9.35
2018-01-30T16:15:19.210Z,9.23
2018-01-30T16:17:46.832Z,9.17
2018-01-30T16:20:14.426Z,9.15
2018-01-30T16:22:42.092Z,9.14
2018-01-30T16:25:09.682Z,9.17
2018-01-30T16:27:37.310Z,9.17
2018-01-30T16:30:04.894Z,9.12
2018-01-30T16:32:32.597Z,9.09
2018-01-30T16:35:00.186Z,9.06
2018-01-30T16:37:27.818Z,9.05
2018-01-30T16:39:55.407Z,9.06
2018-01-30T16:42:23.077Z,8.75
2018-01-30T16:44:50.668Z,8.44
2018-01-30T16:47:18.305Z,8.35
2018-01-30T16:49:45.916Z,8.38
2018-01-30T16:52:13.551Z,8.41
2018-01-30T16:54:41.158Z,8.44
2018-01-30T16:57:08.802Z,8.51
2018-01-30T16:59:36.465Z,8.54
2018-01-30T17:02:04.118Z,8.54
2018-01-30T17:04:31.783Z,8.51
2018-01-30T17:06:59.405Z,8.39
2018-01-30T17:09:27.010Z,8.33
2018-01-30T17:11:54.742Z,8.36
2018-01-30T17:14:22.345Z,8.38
2018-01-30T17:16:49.990Z,8.22
2018-01-30T17:19:17.604Z,8.13
2018-01-30T17:21:45.258Z,8.04
2018-01-30T17:24:12.862Z,8.10
2018-01-30T17:26:40.477Z,8.03
2018-01-30T17:29:08.083Z,7.97
2018-01-30T17:31:35.702Z,7.93
2018-01-30T17:34:03.331Z,7.94
2018-01-30T17:36:30.949Z,7.90
2018-01-30T17:38:58.703Z,7.88
2018-01-30T17:41:26.365Z,7.83
2018-01-30T17:43:53.977Z,7.86
2018-01-30T17:46:21.717Z,7.84
2018-01-30T17:48:49.325Z,7.80
2018-01-30T17:51:17.026Z,7.78
2018-01-30T17:53:44.617Z,7.73
2018-01-30T17:56:12.243Z,7.70
2018-01-30T17:58:39.913Z,7.71
2018-01-30T18:01:07.529Z,7.73
2018-01-30T18:03:35.131Z,7.66
2018-01-30T18:06:02.769Z,7.66
2018-01-30T18:08:30.365Z,7.62
2018-01-30T18:10:58.070Z,7.58
2018-01-30T18:13:25.910Z,7.59
2018-01-30T18:15:53.511Z,7.57
2018-01-30T18:18:21.144Z,7.53
2018-01-30T18:20:48.782Z,7.51
2018-01-30T18:23:16.449Z,7.44
2018-01-30T18:25:44.050Z,7.16
2018-01-30T18:28:11.678Z,6.87
2018-01-30T18:30:39.299Z,6.71
2018-01-30T18:33:06.926Z,6.56
2018-01-30T18:35:34.534Z,6.52
2018-01-30T18:38:02.182Z,6.59
2018-01-30T18:40:29.778Z,6.74
2018-01-30T18:42:57.448Z,6.88
2018-01-30T18:45:25.041Z,7.05
2018-01-30T18:47:52.685Z,7.17
2018-01-30T18:50:20.356Z,7.23
2018-01-30T18:52:48.003Z,7.22
2018-01-30T18:55:15.599Z,7.22
2018-01-30T18:57:43.225Z,7.23
2018-01-30T19:00:10.814Z,7.24
2018-01-30T19:02:38.542Z,7.25
2018-01-30T19:05:06.160Z,7.23
2018-01-30T19:07:33.837Z,7.21
2018-01-30T19:10:01.430Z,7.24
2018-01-30T19:12:29.050Z,7.23
2018-01-30T19:14:56.643Z,7.27
2018-01-30T19:17:24.270Z,7.28
2018-01-30T19:19:51.852Z,7.16
2018-01-30T19:22:19.497Z,6.90
2018-01-30T19:24:47.126Z,6.84
2018-01-30T19:27:14.757Z,6.81
2018-01-30T19:29:42.421Z,6.78
2018-01-30T19:32:10.083Z,6.75
2018-01-30T19:34:37.714Z,6.78
2018-01-30T19:37:05.370Z,6.78
2018-01-30T19:39:32.972Z,6.80
2018-01-30T19:42:00.606Z,6.86
2018-01-30T19:44:28.274Z,6.92
2018-01-30T19:46:55.917Z,7.06
2018-01-30T19:49:23.540Z,7.11
2018-01-30T19:51:51.175Z,6.96
2018-01-30T19:54:18.800Z,6.97
2018-01-30T19:56:46.458Z,6.88
2018-01-30T19:59:14.062Z,6.83
2018-01-30T20:01:41.731Z,6.83
2018-01-30T20:04:09.316Z,6.87
2018-01-30T20:06:36.952Z,6.93
2018-01-30T20:09:04.552Z,7.03
2018-01-30T20:11:32.187Z,7.05
2018-01-30T20:13:59.808Z,7.04
2018-01-30T20:16:27.479Z,7.01
2018-01-30T20:18:55.114Z,7.02
2018-01-30T20:21:22.768Z,7.06
2018-01-30T20:23:50.373Z,6.93
2018-01-30T20:26:17.997Z,6.70
2018-01-30T20:28:45.601Z,6.70
2018-01-30T20:31:13.219Z,6.73
2018-01-30T20:33:40.831Z,6.65
2018-01-30T20:36:08.488Z,6.64
2018-01-30T20:38:36.094Z,6.59
2018-01-30T20:41:03.737Z,6.41
2018-01-30T20:43:31.350Z,6.37
2018-01-30T20:45:58.976Z,6.42
2018-01-30T20:48:26.573Z,6.38
2018-01-30T20:50:54.199Z,6.38
2018-01-30T20:53:21.832Z,6.41
2018-01-30T20:55:49.469Z,6.41
2018-01-30T20:58:17.051Z,6.37
2018-01-30T21:00:44.672Z,6.34
2018-01-30T21:03:12.325Z,6.38
2018-01-30T21:05:39.906Z,6.36
2018-01-30T21:08:07.507Z,6.38
2018-01-30T21:10:35.189Z,6.40
2018-01-30T21:13:02.797Z,6.44
2018-01-30T21:15:30.405Z,6.45
2018-01-30T21:17:58.019Z,6.53
2018-01-30T21:20:25.679Z,6.52
2018-01-30T21:22:53.280Z,6.54
2018-01-30T21:25:20.921Z,6.59
2018-01-30T21:27:48.543Z,6.67
2018-01-30T21:30:16.181Z,6.68
2018-01-30T21:32:43.806Z,6.70
2018-01-30T21:35:11.393Z,6.72
2018-01-30T21:37:39.132Z,6.74
2018-01-30T21:40:06.716Z,6.76
2018-01-30T21:42:34.331Z,6.78
2018-01-30T21:45:01.922Z,6.80
2018-01-30T21:47:29.535Z,6.80
2018-01-30T21:49:57.152Z,6.79
2018-01-30T21:52:24.800Z,6.81
2018-01-30T21:54:52.399Z,6.88
2018-01-30T21:57:20.070Z,6.90
2018-01-30T21:59:47.653Z,6.99
2018-01-30T22:02:15.294Z,6.98
2018-01-30T22:04:42.966Z,6.96
2018-01-30T22:07:10.590Z,6.87
2018-01-30T22:09:38.188Z,6.73
2018-01-30T22:12:05.858Z,6.66
2018-01-30T22:14:33.538Z,6.60
2018-01-30T22:17:01.271Z,6.58
2018-01-30T22:19:28.864Z,6.59
2018-01-30T22:21:56.486Z,6.65
2018-01-30T22:24:24.069Z,6.65
2018-01-30T22:26:51.718Z,6.74
2018-01-30T22:29:19.305Z,6.84
2018-01-30T22:31:46.942Z,6.88
2018-01-30T22:34:14.510Z,6.94
2018-01-30T22:36:42.289Z,7.01
2018-01-30T22:39:09.855Z,7.03
2018-01-30T22:41:37.516Z,7.05
2018-01-30T22:44:05.121Z,7.14
2018-01-30T22:46:32.750Z,7.16
